createdAt,value
2022-09-27T00:01:18.052Z,100
2022-09-27T00:07:17.927Z,100
2022-09-27T00:13:17.978Z,100
2022-09-27T00:19:18.132Z,100
2022-09-27T00:25:17.932Z,100
2022-09-27T00:31:18.114Z,100
2022-09-27T00:37:17.924Z,100
2022-09-27T00:43:17.917Z,100
2022-09-27T00:49:17.983Z,100
2022-09-27T00:55:17.947Z,100
2022-09-27T01:01:17.997Z,100
2022-09-27T01:07:17.973Z,100
2022-09-27T01:13:17.937Z,100
2022-09-27T01:19:17.930Z,100
2022-09-27T01:25:17.958Z,100
2022-09-27T01:31:18.033Z,100
2022-09-27T01:37:17.924Z,100
2022-09-27T01:43:17.958Z,100
2022-09-27T01:49:17.931Z,100
2022-09-27T01:55:17.942Z,100
2022-09-27T02:01:18.023Z,100
2022-09-27T02:07:17.908Z,100
2022-09-27T02:13:17.925Z,100
2022-09-27T02:19:17.962Z,100
2022-09-27T02:25:17.928Z,100
2022-09-27T02:31:18.044Z,100
2022-09-27T02:37:17.933Z,100
2022-09-27T02:43:17.923Z,100
2022-09-27T02:49:17.933Z,100
2022-09-27T02:55:17.957Z,100
2022-09-27T03:01:17.975Z,100
2022-09-27T03:07:17.918Z,100
2022-09-27T03:13:17.995Z,100
2022-09-27T03:19:17.959Z,100
2022-09-27T03:25:17.911Z,100
2022-09-27T03:31:17.999Z,100
2022-09-27T03:37:17.926Z,100
2022-09-27T03:43:17.946Z,100
2022-09-27T03:49:17.955Z,100
2022-09-27T03:55:17.936Z,100
2022-09-27T04:01:17.986Z,100
2022-09-27T04:07:17.949Z,100
2022-09-27T04:13:17.937Z,100
2022-09-27T04:19:17.922Z,100
2022-09-27T04:25:17.955Z,100
2022-09-27T04:31:18.036Z,100
2022-09-27T04:37:17.913Z,100
2022-09-27T04:43:17.948Z,100
2022-09-27T04:49:18.120Z,100
2022-09-27T04:55:17.948Z,100
2022-09-27T05:01:17.969Z,100
2022-09-27T05:07:17.922Z,100
2022-09-27T05:13:17.908Z,100
2022-09-27T05:19:17.959Z,100
2022-09-27T05:25:17.920Z,100
2022-09-27T05:31:17.964Z,100
2022-09-27T05:37:17.925Z,100
2022-09-27T05:43:17.978Z,100
2022-09-27T05:49:17.920Z,100
2022-09-27T05:55:17.952Z,100
2022-09-27T06:01:17.993Z,100
2022-09-27T06:07:17.923Z,100
2022-09-27T06:13:17.946Z,100
2022-09-27T06:19:17.925Z,100
2022-09-27T06:25:17.923Z,100
2022-09-27T06:31:17.991Z,100
2022-09-27T06:37:17.906Z,100
2022-09-27T06:43:17.925Z,100
2022-09-27T06:49:17.955Z,100
2022-09-27T06:55:17.929Z,100
2022-09-27T07:01:17.989Z,100
2022-09-27T07:07:17.944Z,100
2022-09-27T07:13:17.908Z,100
2022-09-27T07:19:17.924Z,100
2022-09-27T07:25:17.948Z,100
2022-09-27T07:31:18.016Z,100
2022-09-27T07:37:17.918Z,100
2022-09-27T07:43:17.933Z,100
2022-09-27T07:49:17.933Z,100
2022-09-27T07:55:17.907Z,100
2022-09-27T08:01:17.970Z,100
2022-09-27T08:07:17.926Z,100
2022-09-27T08:13:17.933Z,100
2022-09-27T08:19:18.088Z,100
2022-09-27T08:25:17.899Z,100
2022-09-27T08:31:17.986Z,96.8
2022-09-27T08:37:17.948Z,99.3
2022-09-27T08:43:17.915Z,94.4
2022-09-27T08:49:17.931Z,90.7
2022-09-27T08:55:17.972Z,92.4
2022-09-27T09:01:17.937Z,94.5
2022-09-27T09:07:17.922Z,94.4
2022-09-27T09:13:17.940Z,95.3
2022-09-27T09:19:17.928Z,97.9
2022-09-27T09:25:17.940Z,96.5
2022-09-27T09:31:18.033Z,92.4
2022-09-27T09:37:18.009Z,91.5
2022-09-27T09:45:17.905Z,77.3
2022-09-27T09:51:17.918Z,71.3
2022-09-27T09:57:17.947Z,66.8
2022-09-27T10:03:17.900Z,63.5
2022-09-27T10:09:17.966Z,64.9
2022-09-27T10:15:17.986Z,66.4
2022-09-27T10:21:17.946Z,67.8
2022-09-27T10:27:17.989Z,69
2022-09-27T10:33:17.922Z,72.9
2022-09-27T10:39:17.930Z,71.5
2022-09-27T10:45:17.977Z,77.2
2022-09-27T10:51:17.931Z,76.1
2022-09-27T10:57:17.951Z,78.2
2022-09-27T11:03:17.958Z,79.4
2022-09-27T11:09:17.933Z,77.3
2022-09-27T11:15:17.952Z,74.9
2022-09-27T11:21:17.986Z,76.5
2022-09-27T11:27:17.956Z,69.2
2022-09-27T11:33:17.917Z,70.2
2022-09-27T11:39:18.174Z,72.2
2022-09-27T11:45:50.542Z,73.6
2022-09-27T11:51:17.949Z,75.4
2022-09-27T11:57:17.964Z,76
2022-09-27T12:03:17.926Z,74.6
2022-09-27T12:09:17.956Z,76.2
2022-09-27T12:15:17.974Z,75.3
2022-09-27T12:21:17.943Z,70.3
2022-09-27T12:27:17.928Z,70.6
2022-09-27T12:33:17.952Z,70.4
2022-09-27T12:39:18.024Z,68.8
2022-09-27T12:45:17.949Z,68.8
2022-09-27T12:51:17.974Z,70.1
2022-09-27T12:57:18.329Z,72.6
2022-09-27T13:03:20.450Z,72.8
2022-09-27T13:09:18.093Z,76.5
2022-09-27T13:15:17.969Z,75.8
2022-09-27T13:21:17.943Z,82.7
2022-09-27T13:27:17.997Z,87.3
2022-09-27T13:33:17.937Z,86.5
2022-09-27T13:39:18.196Z,84.8
2022-09-27T13:45:17.969Z,83.1
2022-09-27T13:51:17.949Z,78
2022-09-27T13:57:17.932Z,75.5
2022-09-27T14:03:17.976Z,76.7
2022-09-27T14:09:17.930Z,82.6
2022-09-27T14:15:17.919Z,98.4
2022-09-27T14:21:18.238Z,100
2022-09-27T14:27:17.946Z,100
2022-09-27T14:33:22.615Z,100
2022-09-27T14:39:18.020Z,95.8
2022-09-27T14:45:17.964Z,92.9
2022-09-27T14:51:17.943Z,89.8
2022-09-27T14:57:18.008Z,87.3
2022-09-27T15:03:18.092Z,86.4
2022-09-27T15:09:18.081Z,87.5
2022-09-27T15:15:17.949Z,83.4
2022-09-27T15:21:17.939Z,84.1
2022-09-27T15:27:17.930Z,84.8
2022-09-27T15:33:17.945Z,80.1
2022-09-27T15:41:17.984Z,81.9
2022-09-27T15:47:17.927Z,79
2022-09-27T15:53:17.974Z,78.7
2022-09-27T15:59:17.941Z,83.8
2022-09-27T16:05:17.929Z,86.4
2022-09-27T16:11:18.036Z,90.6
2022-09-27T16:17:17.946Z,92.3
2022-09-27T16:23:17.978Z,92.6
2022-09-27T16:29:18.158Z,93.2
2022-09-27T16:35:17.945Z,93.9
2022-09-27T16:41:17.951Z,92.7
2022-09-27T16:47:17.974Z,91.5
2022-09-27T16:53:17.933Z,92.5
2022-09-27T16:59:17.952Z,93.5
2022-09-27T17:05:17.968Z,95.4
2022-09-27T17:11:17.944Z,95
2022-09-27T17:17:17.953Z,96.2
2022-09-27T17:23:17.987Z,95.9
2022-09-27T17:29:17.954Z,97.2
2022-09-27T17:35:17.958Z,95.8
2022-09-27T17:41:18.003Z,94.2
2022-09-27T17:47:17.958Z,92.9
2022-09-27T17:53:17.973Z,93.2
2022-09-27T17:59:17.971Z,93.3
2022-09-27T18:05:17.956Z,94.2
2022-09-27T18:11:17.962Z,93.2
2022-09-27T18:17:17.974Z,95.7
2022-09-27T18:23:17.927Z,98.6
2022-09-27T18:29:17.943Z,99
2022-09-27T18:35:17.971Z,98.8
2022-09-27T18:41:18.055Z,100
2022-09-27T18:47:18.019Z,100
2022-09-27T18:53:17.976Z,100
2022-09-27T18:59:18.086Z,100
2022-09-27T19:05:17.950Z,100
2022-09-27T19:11:17.977Z,100
2022-09-27T19:17:17.953Z,100
2022-09-27T19:23:17.934Z,100
2022-09-27T19:29:18.233Z,100
2022-09-27T19:35:17.953Z,100
2022-09-27T19:41:17.998Z,100
2022-09-27T19:47:17.994Z,100
2022-09-27T19:53:17.940Z,100
2022-09-27T19:59:18.208Z,100
2022-09-27T20:05:17.973Z,100
2022-09-27T20:11:17.940Z,100
2022-09-27T20:17:17.937Z,100
2022-09-27T20:23:17.956Z,100
2022-09-27T20:29:18.135Z,100
2022-09-27T20:35:17.967Z,100
2022-09-27T20:41:17.972Z,100
2022-09-27T20:47:17.963Z,100
2022-09-27T20:53:17.965Z,100
2022-09-27T20:59:18.318Z,100
2022-09-27T21:05:17.930Z,100
2022-09-27T21:11:17.962Z,100
2022-09-27T21:17:18.041Z,100
2022-09-27T21:23:17.946Z,100
2022-09-27T21:29:18.057Z,100
2022-09-27T21:35:17.974Z,100
2022-09-27T21:41:17.949Z,100
2022-09-27T21:47:17.934Z,100
2022-09-27T21:53:17.979Z,100
2022-09-27T21:59:18.120Z,100
2022-09-27T22:05:17.992Z,100
2022-09-27T22:11:17.965Z,100
2022-09-27T22:17:17.945Z,100
2022-09-27T22:23:17.936Z,100
2022-09-27T22:29:18.165Z,100
2022-09-27T22:35:17.938Z,100
2022-09-27T22:41:17.930Z,100
2022-09-27T22:47:17.964Z,100
2022-09-27T22:53:17.920Z,100
2022-09-27T22:59:18.060Z,100
2022-09-27T23:05:18.065Z,100
2022-09-27T23:11:17.932Z,100
2022-09-27T23:17:17.967Z,100
2022-09-27T23:23:17.977Z,100
2022-09-27T23:29:18.047Z,100
2022-09-27T23:35:17.937Z,100
2022-09-27T23:41:17.979Z,100
2022-09-27T23:47:17.950Z,100
2022-09-27T23:53:17.960Z,100
2022-09-27T23:59:17.996Z,100
